sensor_id;sensor_type;location;lat;lon;timestamp;pressure;altitude;pressure_sealevel;temperature;humidity
48404;BME280;34202;52.536;6.042;2023-02-13T00:00:26;103922.28;;;6.60;100.00
48404;BME280;34202;52.536;6.042;2023-02-13T00:05:27;103926.48;;;6.61;100.00
48404;BME280;34202;52.536;6.042;2023-02-13T00:10:27;103924.67;;;6.62;100.00
48404;BME280;34202;52.536;6.042;2023-02-13T00:15:27;103922.91;;;6.64;100.00
48404;BME280;34202;52.536;6.042;2023-02-13T00:20:27;103917.17;;;6.66;100.00
48404;BME280;34202;52.536;6.042;2023-02-13T00:25:28;103909.52;;;6.68;100.00
48404;BME280;34202;52.536;6.042;2023-02-13T00:30:28;103902.81;;;6.69;100.00
48404;BME280;34202;52.536;6.042;2023-02-13T00:35:29;103902.92;;;6.70;100.00
48404;BME280;34202;52.536;6.042;2023-02-13T00:40:29;103900.80;;;6.72;100.00
48404;BME280;34202;52.536;6.042;2023-02-13T00:45:29;103903.33;;;6.73;100.00
48404;BME280;34202;52.536;6.042;2023-02-13T00:50:29;103905.05;;;6.73;100.00
48404;BME280;34202;52.536;6.042;2023-02-13T00:55:30;103901.67;;;6.74;100.00
48404;BME280;34202;52.536;6.042;2023-02-13T01:00:30;103903.81;;;6.75;100.00
48404;BME280;34202;52.536;6.042;2023-02-13T01:05:31;103901.64;;;6.76;100.00
48404;BME280;34202;52.536;6.042;2023-02-13T01:10:31;103904.76;;;6.76;100.00
48404;BME280;34202;52.536;6.042;2023-02-13T01:15:32;103909.63;;;6.76;100.00
48404;BME280;34202;52.536;6.042;2023-02-13T01:20:33;103906.88;;;6.77;100.00
48404;BME280;34202;52.536;6.042;2023-02-13T01:25:33;103901.13;;;6.76;100.00
48404;BME280;34202;52.536;6.042;2023-02-13T01:30:34;103901.80;;;6.76;100.00
48404;BME280;34202;52.536;6.042;2023-02-13T01:35:34;103904.14;;;6.77;100.00
48404;BME280;34202;52.536;6.042;2023-02-13T01:40:34;103909.66;;;6.77;100.00
48404;BME280;34202;52.536;6.042;2023-02-13T01:45:35;103913.23;;;6.79;100.00
48404;BME280;34202;52.536;6.042;2023-02-13T01:55:56;103909.08;;;6.81;100.00
48404;BME280;34202;52.536;6.042;2023-02-13T02:00:58;103897.60;;;6.81;100.00
48404;BME280;34202;52.536;6.042;2023-02-13T02:06:00;103900.99;;;6.77;100.00
48404;BME280;34202;52.536;6.042;2023-02-13T02:11:08;103897.42;;;6.76;100.00
48404;BME280;34202;52.536;6.042;2023-02-13T02:16:10;103887.80;;;6.76;100.00
48404;BME280;34202;52.536;6.042;2023-02-13T02:21:38;103883.19;;;6.77;100.00
48404;BME280;34202;52.536;6.042;2023-02-13T02:27:13;103877.30;;;6.75;100.00
48404;BME280;34202;52.536;6.042;2023-02-13T02:43:12;103867.96;;;6.68;100.00
48404;BME280;34202;52.536;6.042;2023-02-13T02:48:27;103871.93;;;6.68;100.00
48404;BME280;34202;52.536;6.042;2023-02-13T02:54:06;103869.64;;;6.69;100.00
48404;BME280;34202;52.536;6.042;2023-02-13T02:59:27;103866.48;;;6.71;100.00
48404;BME280;34202;52.536;6.042;2023-02-13T03:04:50;103865.45;;;6.71;100.00
48404;BME280;34202;52.536;6.042;2023-02-13T03:10:24;103863.42;;;6.67;100.00
48404;BME280;34202;52.536;6.042;2023-02-13T03:15:45;103866.48;;;6.64;100.00
48404;BME280;34202;52.536;6.042;2023-02-13T03:21:29;103870.73;;;6.65;100.00
48404;BME280;34202;52.536;6.042;2023-02-13T03:27:30;103865.56;;;6.68;100.00
48404;BME280;34202;52.536;6.042;2023-02-13T03:38:15;103867.58;;;6.67;100.00
48404;BME280;34202;52.536;6.042;2023-02-13T03:43:17;103858.26;;;6.65;100.00
48404;BME280;34202;52.536;6.042;2023-02-13T03:48:23;103860.38;;;6.63;100.00
48404;BME280;34202;52.536;6.042;2023-02-13T03:53:45;103868.83;;;6.61;100.00
48404;BME280;34202;52.536;6.042;2023-02-13T03:58:51;103867.84;;;6.59;100.00
48404;BME280;34202;52.536;6.042;2023-02-13T04:04:57;103868.03;;;6.59;100.00
48404;BME280;34202;52.536;6.042;2023-02-13T04:15:13;103869.95;;;6.62;100.00
48404;BME280;34202;52.536;6.042;2023-02-13T04:20:15;103865.40;;;6.63;100.00
48404;BME280;34202;52.536;6.042;2023-02-13T04:25:16;103863.11;;;6.63;100.00
48404;BME280;34202;52.536;6.042;2023-02-13T04:30:16;103858.70;;;6.59;100.00
48404;BME280;34202;52.536;6.042;2023-02-13T04:35:17;103853.61;;;6.56;100.00
48404;BME280;34202;52.536;6.042;2023-02-13T04:40:18;103855.93;;;6.54;100.00
48404;BME280;34202;52.536;6.042;2023-02-13T04:45:18;103854.13;;;6.56;100.00
48404;BME280;34202;52.536;6.042;2023-02-13T04:50:19;103852.01;;;6.57;100.00
48404;BME280;34202;52.536;6.042;2023-02-13T04:55:22;103842.98;;;6.57;100.00
48404;BME280;34202;52.536;6.042;2023-02-13T05:00:25;103841.60;;;6.57;100.00
48404;BME280;34202;52.536;6.042;2023-02-13T05:05:25;103840.65;;;6.58;100.00
48404;BME280;34202;52.536;6.042;2023-02-13T05:10:27;103837.65;;;6.60;100.00
48404;BME280;34202;52.536;6.042;2023-02-13T05:15:27;103833.16;;;6.60;100.00
48404;BME280;34202;52.536;6.042;2023-02-13T05:20:28;103834.93;;;6.61;100.00
48404;BME280;34202;52.536;6.042;2023-02-13T05:25:28;103834.42;;;6.63;100.00
48404;BME280;34202;52.536;6.042;2023-02-13T05:30:28;103830.52;;;6.64;100.00
48404;BME280;34202;52.536;6.042;2023-02-13T05:35:29;103832.03;;;6.64;100.00
48404;BME280;34202;52.536;6.042;2023-02-13T05:40:29;103826.42;;;6.63;100.00
48404;BME280;34202;52.536;6.042;2023-02-13T05:45:29;103827.17;;;6.61;100.00
48404;BME280;34202;52.536;6.042;2023-02-13T05:50:29;103827.59;;;6.60;100.00
48404;BME280;34202;52.536;6.042;2023-02-13T05:55:30;103833.07;;;6.59;100.00
48404;BME280;34202;52.536;6.042;2023-02-13T06:00:30;103832.79;;;6.57;100.00
48404;BME280;34202;52.536;6.042;2023-02-13T06:05:30;103834.58;;;6.56;100.00
48404;BME280;34202;52.536;6.042;2023-02-13T06:10:31;103833.73;;;6.56;100.00
48404;BME280;34202;52.536;6.042;2023-02-13T06:15:31;103834.10;;;6.56;100.00
48404;BME280;34202;52.536;6.042;2023-02-13T06:20:32;103833.86;;;6.55;100.00
48404;BME280;34202;52.536;6.042;2023-02-13T06:25:36;103837.49;;;6.55;100.00
48404;BME280;34202;52.536;6.042;2023-02-13T06:30:36;103843.82;;;6.57;100.00
48404;BME280;34202;52.536;6.042;2023-02-13T06:35:36;103847.91;;;6.56;100.00
48404;BME280;34202;52.536;6.042;2023-02-13T06:40:37;103845.33;;;6.56;100.00
48404;BME280;34202;52.536;6.042;2023-02-13T06:45:37;103845.73;;;6.54;100.00
48404;BME280;34202;52.536;6.042;2023-02-13T06:50:37;103847.97;;;6.54;100.00
48404;BME280;34202;52.536;6.042;2023-02-13T06:55:38;103855.80;;;6.55;100.00
48404;BME280;34202;52.536;6.042;2023-02-13T07:00:39;103858.73;;;6.54;100.00
48404;BME280;34202;52.536;6.042;2023-02-13T07:05:40;103863.52;;;6.54;100.00
48404;BME280;34202;52.536;6.042;2023-02-13T07:10:41;103869.27;;;6.54;100.00
48404;BME280;34202;52.536;6.042;2023-02-13T07:15:41;103870.69;;;6.55;100.00
48404;BME280;34202;52.536;6.042;2023-02-13T07:20:41;103877.96;;;6.57;100.00
48404;BME280;34202;52.536;6.042;2023-02-13T07:25:42;103884.59;;;6.58;100.00
48404;BME280;34202;52.536;6.042;2023-02-13T07:30:42;103887.29;;;6.60;100.00
48404;BME280;34202;52.536;6.042;2023-02-13T07:35:46;103886.39;;;6.62;100.00
48404;BME280;34202;52.536;6.042;2023-02-13T07:40:47;103886.89;;;6.64;100.00
48404;BME280;34202;52.536;6.042;2023-02-13T07:45:47;103881.48;;;6.65;100.00
48404;BME280;34202;52.536;6.042;2023-02-13T07:50:48;103884.05;;;6.68;100.00
48404;BME280;34202;52.536;6.042;2023-02-13T07:55:48;103882.48;;;6.70;100.00
48404;BME280;34202;52.536;6.042;2023-02-13T08:00:48;103888.54;;;6.72;100.00
48404;BME280;34202;52.536;6.042;2023-02-13T08:05:49;103888.48;;;6.76;100.00
48404;BME280;34202;52.536;6.042;2023-02-13T08:10:49;103891.86;;;6.80;100.00
48404;BME280;34202;52.536;6.042;2023-02-13T08:16:08;103896.73;;;6.83;100.00
48404;BME280;34202;52.536;6.042;2023-02-13T08:21:09;103898.65;;;6.88;100.00
48404;BME280;34202;52.536;6.042;2023-02-13T08:26:09;103904.00;;;6.92;100.00
48404;BME280;34202;52.536;6.042;2023-02-13T08:31:11;103899.27;;;6.96;100.00
48404;BME280;34202;52.536;6.042;2023-02-13T08:36:11;103893.15;;;7.01;100.00
48404;BME280;34202;52.536;6.042;2023-02-13T08:41:13;103892.34;;;7.04;100.00
48404;BME280;34202;52.536;6.042;2023-02-13T08:46:14;103895.00;;;7.07;100.00
48404;BME280;34202;52.536;6.042;2023-02-13T08:51:15;103898.27;;;7.12;100.00
48404;BME280;34202;52.536;6.042;2023-02-13T08:56:15;103899.64;;;7.17;100.00
48404;BME280;34202;52.536;6.042;2023-02-13T09:01:16;103901.20;;;7.22;100.00
48404;BME280;34202;52.536;6.042;2023-02-13T09:06:16;103906.04;;;7.27;100.00
48404;BME280;34202;52.536;6.042;2023-02-13T09:11:16;103901.54;;;7.32;100.00
48404;BME280;34202;52.536;6.042;2023-02-13T09:16:19;103904.36;;;7.38;100.00
48404;BME280;34202;52.536;6.042;2023-02-13T09:21:21;103903.73;;;7.44;100.00
48404;BME280;34202;52.536;6.042;2023-02-13T09:26:24;103907.64;;;7.50;100.00
48404;BME280;34202;52.536;6.042;2023-02-13T09:31:24;103912.46;;;7.58;100.00
48404;BME280;34202;52.536;6.042;2023-02-13T09:36:25;103908.48;;;7.63;100.00
48404;BME280;34202;52.536;6.042;2023-02-13T09:41:31;103913.43;;;7.69;100.00
48404;BME280;34202;52.536;6.042;2023-02-13T09:46:38;103909.25;;;7.77;100.00
48404;BME280;34202;52.536;6.042;2023-02-13T09:51:39;103907.53;;;7.85;100.00
48404;BME280;34202;52.536;6.042;2023-02-13T10:02:22;103904.90;;;8.00;100.00
48404;BME280;34202;52.536;6.042;2023-02-13T10:07:39;103902.71;;;8.09;100.00
48404;BME280;34202;52.536;6.042;2023-02-13T10:12:51;103899.60;;;8.17;100.00
48404;BME280;34202;52.536;6.042;2023-02-13T10:17:58;103904.73;;;8.26;100.00
48404;BME280;34202;52.536;6.042;2023-02-13T10:33:42;103900.77;;;8.53;100.00
48404;BME280;34202;52.536;6.042;2023-02-13T10:38:56;103898.52;;;8.64;100.00
48404;BME280;34202;52.536;6.042;2023-02-13T10:44:28;103896.91;;;8.72;100.00
48404;BME280;34202;52.536;6.042;2023-02-13T11:00:26;103895.41;;;9.01;100.00
48404;BME280;34202;52.536;6.042;2023-02-13T11:05:35;103890.48;;;9.11;100.00
48404;BME280;34202;52.536;6.042;2023-02-13T11:10:36;103885.92;;;9.19;100.00
48404;BME280;34202;52.536;6.042;2023-02-13T11:15:36;103883.08;;;9.26;100.00
48404;BME280;34202;52.536;6.042;2023-02-13T11:20:39;103878.52;;;9.34;100.00
48404;BME280;34202;52.536;6.042;2023-02-13T11:26:02;103868.20;;;9.42;100.00
48404;BME280;34202;52.536;6.042;2023-02-13T11:36:15;103850.88;;;9.61;100.00
48404;BME280;34202;52.536;6.042;2023-02-13T11:41:17;103846.66;;;9.69;100.00
48404;BME280;34202;52.536;6.042;2023-02-13T11:46:23;103852.63;;;9.79;100.00
48404;BME280;34202;52.536;6.042;2023-02-13T11:51:37;103853.69;;;9.88;100.00
48404;BME280;34202;52.536;6.042;2023-02-13T11:56:47;103846.09;;;9.95;100.00
48404;BME280;34202;52.536;6.042;2023-02-13T12:07:29;103832.61;;;10.12;100.00
48404;BME280;34202;52.536;6.042;2023-02-13T12:12:37;103829.89;;;10.19;100.00
48404;BME280;34202;52.536;6.042;2023-02-13T12:17:42;103824.66;;;10.26;100.00
48404;BME280;34202;52.536;6.042;2023-02-13T12:28:12;103809.79;;;10.40;99.65
48404;BME280;34202;52.536;6.042;2023-02-13T12:33:20;103806.45;;;10.46;99.11
48404;BME280;34202;52.536;6.042;2023-02-13T12:39:14;103801.09;;;10.50;98.52
48404;BME280;34202;52.536;6.042;2023-02-13T12:44:09;103795.55;;;10.50;97.94
48404;BME280;34202;52.536;6.042;2023-02-13T13:26:47;103787.15;;;10.52;96.03
48404;BME280;34202;52.536;6.042;2023-02-13T13:32:06;103779.69;;;10.53;95.56
48404;BME280;34202;52.536;6.042;2023-02-13T13:42:46;103759.48;;;10.46;94.83
48404;BME280;34202;52.536;6.042;2023-02-13T13:47:54;103756.04;;;10.47;95.05
48404;BME280;34202;52.536;6.042;2023-02-13T13:53:22;103749.91;;;10.47;94.70
48404;BME280;34202;52.536;6.042;2023-02-13T13:58:44;103742.97;;;10.44;94.71
48404;BME280;34202;52.536;6.042;2023-02-13T14:09:00;103737.02;;;10.40;94.68
48404;BME280;34202;52.536;6.042;2023-02-13T14:19:37;103720.27;;;10.33;94.38
48404;BME280;34202;52.536;6.042;2023-02-13T14:24:39;103712.23;;;10.30;94.38
48404;BME280;34202;52.536;6.042;2023-02-13T14:29:46;103711.88;;;10.26;94.06
48404;BME280;34202;52.536;6.042;2023-02-13T14:34:53;103714.61;;;10.22;94.22
48404;BME280;34202;52.536;6.042;2023-02-13T14:40:41;103709.20;;;10.18;94.21
48404;BME280;34202;52.536;6.042;2023-02-13T14:45:53;103707.24;;;10.14;94.36
48404;BME280;34202;52.536;6.042;2023-02-13T14:50:54;103703.59;;;10.11;94.33
48404;BME280;34202;52.536;6.042;2023-02-13T14:56:12;103704.55;;;10.06;94.28
48404;BME280;34202;52.536;6.042;2023-02-13T15:01:24;103703.94;;;10.01;94.19
48404;BME280;34202;52.536;6.042;2023-02-13T15:06:29;103706.22;;;9.99;94.38
48404;BME280;34202;52.536;6.042;2023-02-13T15:11:33;103709.27;;;9.97;94.52
48404;BME280;34202;52.536;6.042;2023-02-13T15:16:36;103700.50;;;9.93;94.32
48404;BME280;34202;52.536;6.042;2023-02-13T15:21:37;103700.46;;;9.89;94.37
48404;BME280;34202;52.536;6.042;2023-02-13T15:26:38;103696.39;;;9.84;94.43
48404;BME280;34202;52.536;6.042;2023-02-13T15:31:38;103697.23;;;9.81;94.47
48404;BME280;34202;52.536;6.042;2023-02-13T15:36:40;103699.21;;;9.76;94.42
48404;BME280;34202;52.536;6.042;2023-02-13T15:41:46;103696.58;;;9.72;94.64
48404;BME280;34202;52.536;6.042;2023-02-13T15:46:50;103692.52;;;9.68;94.59
48404;BME280;34202;52.536;6.042;2023-02-13T15:52:01;103694.08;;;9.62;94.41
48404;BME280;34202;52.536;6.042;2023-02-13T15:57:05;103692.98;;;9.55;94.58
48404;BME280;34202;52.536;6.042;2023-02-13T16:02:12;103684.81;;;9.48;94.66
48404;BME280;34202;52.536;6.042;2023-02-13T16:07:14;103679.77;;;9.42;94.65
48404;BME280;34202;52.536;6.042;2023-02-13T16:12:27;103675.81;;;9.37;94.71
48404;BME280;34202;52.536;6.042;2023-02-13T16:17:30;103671.94;;;9.30;94.70
48404;BME280;34202;52.536;6.042;2023-02-13T16:23:12;103668.11;;;9.23;94.72
48404;BME280;34202;52.536;6.042;2023-02-13T16:28:17;103671.50;;;9.16;94.78
48404;BME280;34202;52.536;6.042;2023-02-13T16:33:21;103671.66;;;9.10;94.78
48404;BME280;34202;52.536;6.042;2023-02-13T16:38:30;103673.56;;;9.03;94.71
48404;BME280;34202;52.536;6.042;2023-02-13T16:43:50;103674.05;;;8.97;94.72
48404;BME280;34202;52.536;6.042;2023-02-13T17:04:55;103672.08;;;8.61;94.50
48404;BME280;34202;52.536;6.042;2023-02-13T17:09:58;103670.70;;;8.49;94.67
48404;BME280;34202;52.536;6.042;2023-02-13T17:14:59;103670.73;;;8.39;94.89
48404;BME280;34202;52.536;6.042;2023-02-13T17:19:59;103670.90;;;8.30;95.23
48404;BME280;34202;52.536;6.042;2023-02-13T17:25:04;103672.29;;;8.22;95.28
48404;BME280;34202;52.536;6.042;2023-02-13T17:30:06;103678.21;;;8.11;95.49
48404;BME280;34202;52.536;6.042;2023-02-13T17:35:09;103681.13;;;8.02;95.63
48404;BME280;34202;52.536;6.042;2023-02-13T17:40:18;103684.73;;;7.93;96.08
48404;BME280;34202;52.536;6.042;2023-02-13T17:45:25;103679.35;;;7.85;96.57
48404;BME280;34202;52.536;6.042;2023-02-13T17:50:28;103676.23;;;7.77;96.51
48404;BME280;34202;52.536;6.042;2023-02-13T17:55:30;103681.17;;;7.69;96.81
48404;BME280;34202;52.536;6.042;2023-02-13T18:00:31;103683.91;;;7.61;96.81
48404;BME280;34202;52.536;6.042;2023-02-13T18:05:32;103684.25;;;7.53;97.19
48404;BME280;34202;52.536;6.042;2023-02-13T18:10:35;103683.56;;;7.45;97.22
48404;BME280;34202;52.536;6.042;2023-02-13T18:15:41;103686.45;;;7.36;97.55
48404;BME280;34202;52.536;6.042;2023-02-13T18:26:39;103677.98;;;7.21;97.49
48404;BME280;34202;52.536;6.042;2023-02-13T18:31:39;103677.55;;;7.13;98.02
48404;BME280;34202;52.536;6.042;2023-02-13T18:36:39;103678.23;;;7.06;98.13
48404;BME280;34202;52.536;6.042;2023-02-13T18:41:40;103677.56;;;7.01;98.41
48404;BME280;34202;52.536;6.042;2023-02-13T18:46:40;103676.57;;;6.96;98.85
48404;BME280;34202;52.536;6.042;2023-02-13T18:51:40;103669.98;;;6.91;99.06
48404;BME280;34202;52.536;6.042;2023-02-13T18:56:42;103671.02;;;6.86;98.98
48404;BME280;34202;52.536;6.042;2023-02-13T19:01:43;103675.30;;;6.80;99.07
48404;BME280;34202;52.536;6.042;2023-02-13T19:06:44;103672.09;;;6.73;99.25
48404;BME280;34202;52.536;6.042;2023-02-13T19:11:44;103674.76;;;6.67;99.17
48404;BME280;34202;52.536;6.042;2023-02-13T19:16:46;103669.65;;;6.61;99.45
48404;BME280;34202;52.536;6.042;2023-02-13T19:21:47;103668.13;;;6.56;99.88
48404;BME280;34202;52.536;6.042;2023-02-13T19:26:47;103666.09;;;6.51;99.93
48404;BME280;34202;52.536;6.042;2023-02-13T19:31:48;103659.75;;;6.47;99.99
48404;BME280;34202;52.536;6.042;2023-02-13T19:36:48;103656.86;;;6.43;100.00
48404;BME280;34202;52.536;6.042;2023-02-13T19:41:48;103652.95;;;6.39;100.00
48404;BME280;34202;52.536;6.042;2023-02-13T19:46:49;103647.79;;;6.34;100.00
48404;BME280;34202;52.536;6.042;2023-02-13T19:51:49;103650.48;;;6.31;100.00
48404;BME280;34202;52.536;6.042;2023-02-13T19:56:49;103655.74;;;6.29;100.00
48404;BME280;34202;52.536;6.042;2023-02-13T20:01:50;103656.23;;;6.26;100.00
48404;BME280;34202;52.536;6.042;2023-02-13T20:06:50;103657.60;;;6.24;100.00
48404;BME280;34202;52.536;6.042;2023-02-13T20:11:56;103661.31;;;6.20;100.00
48404;BME280;34202;52.536;6.042;2023-02-13T20:16:58;103659.36;;;6.14;100.00
48404;BME280;34202;52.536;6.042;2023-02-13T20:21:58;103664.77;;;6.07;100.00
48404;BME280;34202;52.536;6.042;2023-02-13T20:26:59;103666.06;;;6.01;100.00
48404;BME280;34202;52.536;6.042;2023-02-13T20:31:59;103671.70;;;5.95;100.00
48404;BME280;34202;52.536;6.042;2023-02-13T20:37:00;103673.30;;;5.89;100.00
48404;BME280;34202;52.536;6.042;2023-02-13T20:42:00;103669.32;;;5.82;100.00
48404;BME280;34202;52.536;6.042;2023-02-13T20:47:02;103671.61;;;5.75;100.00
48404;BME280;34202;52.536;6.042;2023-02-13T20:52:02;103674.98;;;5.71;100.00
48404;BME280;34202;52.536;6.042;2023-02-13T20:57:04;103677.49;;;5.68;100.00
48404;BME280;34202;52.536;6.042;2023-02-13T21:02:05;103678.58;;;5.64;100.00
48404;BME280;34202;52.536;6.042;2023-02-13T21:07:06;103689.31;;;5.59;100.00
48404;BME280;34202;52.536;6.042;2023-02-13T21:12:08;103689.70;;;5.53;100.00
48404;BME280;34202;52.536;6.042;2023-02-13T21:17:08;103689.16;;;5.48;100.00
48404;BME280;34202;52.536;6.042;2023-02-13T21:22:08;103691.40;;;5.40;100.00
48404;BME280;34202;52.536;6.042;2023-02-13T21:27:12;103694.47;;;5.33;100.00
48404;BME280;34202;52.536;6.042;2023-02-13T21:32:12;103695.73;;;5.24;100.00
48404;BME280;34202;52.536;6.042;2023-02-13T21:37:12;103699.23;;;5.08;100.00
48404;BME280;34202;52.536;6.042;2023-02-13T21:42:14;103698.66;;;4.90;100.00
48404;BME280;34202;52.536;6.042;2023-02-13T21:47:14;103692.88;;;4.72;100.00
48404;BME280;34202;52.536;6.042;2023-02-13T21:52:18;103691.08;;;4.60;100.00
48404;BME280;34202;52.536;6.042;2023-02-13T21:57:18;103688.27;;;4.53;100.00
48404;BME280;34202;52.536;6.042;2023-02-13T22:02:18;103685.69;;;4.39;100.00
48404;BME280;34202;52.536;6.042;2023-02-13T22:07:19;103681.99;;;4.25;100.00
48404;BME280;34202;52.536;6.042;2023-02-13T22:12:19;103674.19;;;4.17;100.00
48404;BME280;34202;52.536;6.042;2023-02-13T22:17:19;103672.98;;;4.15;100.00
48404;BME280;34202;52.536;6.042;2023-02-13T22:22:19;103665.00;;;4.13;100.00
48404;BME280;34202;52.536;6.042;2023-02-13T22:27:20;103663.37;;;4.10;100.00
48404;BME280;34202;52.536;6.042;2023-02-13T22:32:20;103662.61;;;4.06;100.00
48404;BME280;34202;52.536;6.042;2023-02-13T22:37:20;103658.02;;;4.03;100.00
48404;BME280;34202;52.536;6.042;2023-02-13T22:42:21;103653.28;;;4.02;100.00
48404;BME280;34202;52.536;6.042;2023-02-13T22:47:21;103654.35;;;4.00;100.00
48404;BME280;34202;52.536;6.042;2023-02-13T22:52:21;103655.91;;;3.93;100.00
48404;BME280;34202;52.536;6.042;2023-02-13T22:57:22;103654.44;;;3.83;100.00
48404;BME280;34202;52.536;6.042;2023-02-13T23:02:22;103650.63;;;3.75;100.00
48404;BME280;34202;52.536;6.042;2023-02-13T23:07:22;103653.89;;;3.68;100.00
48404;BME280;34202;52.536;6.042;2023-02-13T23:12:23;103652.08;;;3.62;100.00
48404;BME280;34202;52.536;6.042;2023-02-13T23:17:35;103651.86;;;3.55;100.00
48404;BME280;34202;52.536;6.042;2023-02-13T23:22:55;103651.70;;;3.49;100.00
48404;BME280;34202;52.536;6.042;2023-02-13T23:27:57;103647.44;;;3.45;100.00
48404;BME280;34202;52.536;6.042;2023-02-13T23:32:58;103650.91;;;3.41;100.00
48404;BME280;34202;52.536;6.042;2023-02-13T23:37:59;103643.41;;;3.38;100.00
48404;BME280;34202;52.536;6.042;2023-02-13T23:42:59;103649.02;;;3.35;100.00
48404;BME280;34202;52.536;6.042;2023-02-13T23:47:59;103644.44;;;3.32;100.00
48404;BME280;34202;52.536;6.042;2023-02-13T23:53:00;103640.77;;;3.31;100.00
48404;BME280;34202;52.536;6.042;2023-02-13T23:58:00;103642.06;;;3.32;100.00
